createdAt,value
2022-10-03T00:02:05.032Z,16.02
2022-10-03T00:07:19.807Z,17.33
2022-10-03T00:12:42.318Z,10.40
2022-10-03T00:17:57.461Z,13.18
2022-10-03T00:23:08.034Z,10.32
2022-10-03T00:28:25.006Z,17.00
2022-10-03T00:33:40.648Z,16.10
2022-10-03T00:39:14.828Z,13.00
2022-10-03T00:44:47.509Z,16.80
2022-10-03T00:50:18.322Z,18.35
2022-10-03T00:55:31.262Z,20.80
2022-10-03T01:00:35.887Z,14.25
2022-10-03T01:05:55.954Z,18.42
2022-10-03T01:11:09.757Z,18.30
2022-10-03T01:16:20.978Z,17.15
2022-10-03T01:21:38.300Z,16.55
2022-10-03T01:26:55.918Z,18.58
2022-10-03T01:32:05.151Z,18.42
2022-10-03T01:37:11.597Z,20.25
2022-10-03T01:42:20.808Z,16.05
2022-10-03T01:47:34.324Z,13.68
2022-10-03T01:52:42.282Z,18.45
2022-10-03T01:57:50.549Z,21.75
2022-10-03T02:03:06.912Z,17.65
2022-10-03T02:08:23.069Z,15.75
2022-10-03T02:13:32.275Z,25.85
2022-10-03T02:18:46.150Z,17.67
2022-10-03T02:23:50.737Z,14.40
2022-10-03T02:29:18.449Z,20.88
2022-10-03T02:34:43.126Z,18.98
2022-10-03T02:40:36.406Z,21.17
2022-10-03T02:51:44.982Z,27.10
2022-10-03T02:57:32.077Z,18.75
2022-10-03T03:03:25.153Z,25.50
2022-10-03T03:09:03.298Z,18.63
2022-10-03T03:14:46.185Z,21.13
2022-10-03T03:20:04.049Z,17.83
2022-10-03T03:25:23.198Z,18.05
2022-10-03T03:30:33.412Z,17.00
2022-10-03T03:35:54.201Z,18.60
2022-10-03T03:41:13.105Z,22.63
2022-10-03T03:46:34.376Z,23.17
2022-10-03T03:51:44.062Z,19.55
2022-10-03T03:57:05.588Z,17.45
2022-10-03T04:02:27.010Z,20.05
2022-10-03T04:07:49.097Z,24.63
2022-10-03T04:13:18.859Z,17.60
2022-10-03T04:18:51.605Z,18.77
2022-10-03T04:24:08.251Z,20.88
2022-10-03T04:29:43.419Z,20.65
2022-10-03T04:34:58.125Z,27.45
2022-10-03T04:40:19.080Z,23.83
2022-10-03T04:45:42.185Z,21.48
2022-10-03T04:50:57.309Z,19.95
2022-10-03T04:56:14.915Z,21.00
2022-10-03T05:01:26.305Z,18.85
2022-10-03T05:06:39.017Z,18.65
2022-10-03T05:11:57.099Z,20.75
2022-10-03T05:17:08.446Z,16.83
2022-10-03T05:22:23.563Z,17.75
2022-10-03T05:27:36.157Z,21.30
2022-10-03T05:32:46.381Z,14.13
2022-10-03T05:38:13.495Z,19.73
2022-10-03T05:43:29.956Z,18.63
2022-10-03T05:48:45.367Z,18.23
2022-10-03T05:54:33.432Z,18.40
2022-10-03T06:00:08.649Z,16.25
2022-10-03T06:05:30.614Z,15.05
2022-10-03T06:10:56.471Z,14.90
2022-10-03T06:16:06.513Z,12.18
2022-10-03T06:21:43.425Z,14.55
2022-10-03T06:27:17.002Z,18.38
2022-10-03T06:32:51.180Z,13.25
2022-10-03T06:38:34.809Z,17.42
2022-10-03T06:44:07.709Z,13.48
2022-10-03T06:49:53.428Z,13.75
2022-10-03T06:55:35.673Z,10.73
2022-10-03T07:00:54.545Z,9.40
2022-10-03T07:06:12.889Z,15.05
2022-10-03T07:11:34.602Z,14.23
2022-10-03T07:17:01.360Z,13.70
2022-10-03T07:22:41.638Z,13.25
2022-10-03T07:28:18.038Z,11.23
2022-10-03T07:33:53.430Z,13.10
2022-10-03T07:39:52.416Z,11.05
2022-10-03T07:45:24.369Z,12.63
2022-10-03T07:50:50.378Z,10.43
2022-10-03T07:56:15.129Z,10.18
2022-10-03T08:01:45.098Z,13.43
2022-10-03T08:06:58.125Z,8.05
2022-10-03T08:12:40.401Z,8.73
2022-10-03T08:18:18.874Z,10.17
2022-10-03T08:23:45.892Z,11.68
2022-10-03T08:29:14.387Z,7.68
2022-10-03T08:35:02.163Z,9.90
2022-10-03T08:40:44.757Z,9.15
2022-10-03T08:46:00.384Z,11.73
2022-10-03T08:51:40.606Z,7.25
2022-10-03T08:57:02.466Z,9.82
2022-10-03T09:02:57.424Z,7.38
2022-10-03T09:08:48.124Z,4.43
2022-10-03T09:14:34.226Z,8.15
2022-10-03T09:20:09.192Z,11.35
2022-10-03T09:25:34.989Z,7.85
2022-10-03T09:30:53.827Z,5.47
2022-10-03T09:36:19.008Z,7.00
2022-10-03T09:42:00.961Z,7.85
2022-10-03T09:54:34.150Z,8.45
2022-10-03T10:00:12.214Z,5.53
2022-10-03T10:05:41.150Z,14.38
2022-10-03T10:10:55.142Z,7.70
2022-10-03T10:16:33.100Z,7.20
2022-10-03T10:21:52.876Z,11.45
2022-10-03T10:27:21.289Z,8.02
2022-10-03T10:33:01.472Z,9.27
2022-10-03T10:38:28.167Z,6.85
2022-10-03T10:44:24.938Z,8.02
2022-10-03T10:50:05.180Z,7.88
2022-10-03T10:55:45.404Z,12.20
2022-10-03T11:01:22.820Z,14.25
2022-10-03T11:07:01.069Z,9.70
2022-10-03T11:12:56.382Z,7.80
2022-10-03T11:18:47.745Z,5.25
2022-10-03T11:24:32.502Z,10.13
2022-10-03T11:35:50.269Z,12.23
2022-10-03T11:41:04.511Z,8.20
2022-10-03T11:46:22.618Z,8.77
2022-10-03T11:51:39.020Z,7.22
2022-10-03T11:56:45.947Z,7.78
2022-10-03T12:02:07.729Z,9.85
2022-10-03T12:07:37.549Z,14.10
2022-10-03T12:12:47.729Z,12.55
2022-10-03T12:18:02.562Z,10.35
2022-10-03T12:23:19.091Z,11.82
2022-10-03T12:28:27.930Z,7.45
2022-10-03T12:33:52.713Z,7.13
2022-10-03T12:39:15.321Z,9.23
2022-10-03T12:44:35.625Z,10.02
2022-10-03T12:49:52.522Z,5.55
2022-10-03T12:55:07.089Z,6.97
2022-10-03T13:00:20.833Z,3.17
2022-10-03T13:11:16.642Z,5.55
2022-10-03T13:16:24.977Z,4.75
2022-10-03T13:21:51.623Z,3.72
2022-10-03T13:27:03.813Z,5.43
2022-10-03T13:32:16.281Z,5.10
2022-10-03T13:42:39.080Z,3.20
2022-10-03T13:47:49.329Z,4.72
2022-10-03T13:53:01.048Z,3.80
2022-10-03T13:58:25.067Z,6.43
2022-10-03T14:09:35.559Z,5.60
2022-10-03T14:21:46.871Z,4.70
2022-10-03T14:26:56.061Z,7.60
2022-10-03T14:32:28.375Z,5.00
2022-10-03T14:37:41.944Z,5.63
2022-10-03T14:42:57.488Z,4.15
2022-10-03T14:48:07.517Z,6.00
2022-10-03T14:53:17.979Z,5.47
2022-10-03T14:58:23.937Z,6.20
2022-10-03T15:03:33.583Z,5.15
2022-10-03T15:08:42.939Z,6.60
2022-10-03T15:13:48.949Z,8.05
2022-10-03T15:18:56.262Z,3.67
2022-10-03T15:24:03.784Z,4.25
2022-10-03T15:29:08.397Z,5.05
2022-10-03T15:34:18.427Z,7.85
2022-10-03T15:39:27.859Z,6.88
2022-10-03T15:44:39.082Z,10.10
2022-10-03T15:49:50.181Z,2.70
2022-10-03T15:55:11.174Z,3.83
2022-10-03T16:00:24.564Z,7.07
2022-10-03T16:05:28.498Z,8.10
2022-10-03T16:10:39.661Z,7.43
2022-10-03T16:16:10.734Z,8.25
2022-10-03T16:21:17.656Z,6.20
2022-10-03T16:26:26.871Z,7.18
2022-10-03T16:31:37.425Z,5.70
2022-10-03T16:36:44.689Z,4.15
2022-10-03T16:41:54.196Z,5.53
2022-10-03T16:47:02.645Z,8.85
2022-10-03T16:52:11.488Z,5.95
2022-10-03T16:57:20.475Z,5.25
2022-10-03T17:02:28.231Z,5.38
2022-10-03T17:07:38.189Z,11.18
2022-10-03T17:12:46.414Z,7.22
2022-10-03T17:17:55.266Z,6.22
2022-10-03T17:23:02.419Z,8.85
2022-10-03T17:28:10.814Z,6.55
2022-10-03T17:33:22.154Z,7.63
2022-10-03T17:44:17.215Z,9.30
2022-10-03T17:49:26.153Z,14.70
2022-10-03T17:54:34.482Z,8.55
2022-10-03T17:59:46.821Z,10.60
2022-10-03T18:04:58.553Z,6.03
2022-10-03T18:10:01.884Z,7.80
2022-10-03T18:15:41.138Z,7.82
2022-10-03T18:20:49.514Z,7.38
2022-10-03T18:26:19.115Z,5.85
2022-10-03T18:31:26.433Z,8.63
2022-10-03T18:36:33.678Z,12.98
2022-10-03T18:41:36.744Z,11.32
2022-10-03T18:46:43.037Z,9.70
2022-10-03T18:51:50.599Z,11.60
2022-10-03T18:57:08.313Z,10.15
2022-10-03T19:02:21.151Z,7.47
2022-10-03T19:12:34.419Z,12.05
2022-10-03T19:17:50.043Z,10.50
2022-10-03T19:23:01.670Z,8.55
2022-10-03T19:28:14.644Z,4.55
2022-10-03T19:33:22.936Z,11.48
2022-10-03T19:38:28.608Z,8.82
2022-10-03T19:43:37.648Z,8.23
2022-10-03T19:48:49.462Z,16.50
2022-10-03T19:53:54.092Z,12.50
2022-10-03T19:59:05.867Z,12.48
2022-10-03T20:04:10.340Z,7.93
2022-10-03T20:09:23.612Z,13.15
2022-10-03T20:14:32.068Z,11.02
2022-10-03T20:19:54.300Z,11.48
2022-10-03T20:24:57.225Z,12.52
2022-10-03T20:30:08.414Z,6.85
2022-10-03T20:35:15.984Z,12.60
2022-10-03T20:40:36.140Z,10.13
2022-10-03T20:45:40.932Z,7.78
2022-10-03T20:50:48.459Z,8.02
2022-10-03T20:55:53.679Z,11.55
2022-10-03T21:01:03.049Z,13.85
2022-10-03T21:06:18.713Z,12.30
2022-10-03T21:11:25.251Z,11.43
2022-10-03T21:16:31.428Z,17.98
2022-10-03T21:21:42.401Z,9.82
2022-10-03T21:26:49.066Z,11.32
2022-10-03T21:31:58.740Z,13.23
2022-10-03T21:37:13.375Z,16.33
2022-10-03T21:42:24.463Z,11.35
2022-10-03T21:47:37.204Z,14.60
2022-10-03T21:53:00.303Z,10.18
2022-10-03T21:58:16.664Z,9.60
2022-10-03T22:03:24.200Z,10.43
2022-10-03T22:08:31.921Z,11.70
2022-10-03T22:13:38.353Z,9.82
2022-10-03T22:19:05.053Z,11.93
2022-10-03T22:24:17.478Z,13.95
2022-10-03T22:29:29.326Z,13.27
2022-10-03T22:34:44.605Z,13.73
2022-10-03T22:39:50.953Z,11.13
2022-10-03T22:44:54.953Z,9.45
2022-10-03T22:50:01.515Z,14.23
2022-10-03T22:55:09.395Z,13.77
2022-10-03T23:00:15.448Z,9.68
2022-10-03T23:05:30.572Z,16.95
2022-10-03T23:10:43.041Z,13.98
2022-10-03T23:15:50.283Z,20.25
2022-10-03T23:21:05.888Z,16.67
2022-10-03T23:26:35.512Z,16.63
2022-10-03T23:31:57.612Z,19.23
2022-10-03T23:37:02.905Z,12.37
2022-10-03T23:42:10.712Z,18.58
2022-10-03T23:47:16.013Z,21.77
2022-10-03T23:52:24.536Z,23.10
2022-10-03T23:57:40.843Z,14.15
